Time;durP1;ratioP1;P1;durP2;ratioP2;P2;SDS_P1;SDS_P2;PMS_P1;PMS_P2;Temp;Humidity;BMP_temperature;BMP_pressure;BME280_temperature;BME280_humidity;BME280_pressure;Samples;Min_cycle;Max_cycle;Signal;HPM_P1;HPM_P2
2022/11/11 00:02:16;;;;;;;;;10.75;9.00;;;;;;;;5061081;28;51187;-47
2022/11/11 00:05:00;;;;;;;;;13.50;11.75;;;;;;;;5061565;28;51192;-46
2022/11/11 00:07:45;;;;;;;;;11.50;9.75;;;;;;;;5061118;28;51067;-45
2022/11/11 00:10:30;;;;;;;;;10.25;10.00;;;;;;;;5042079;28;51013;-44
2022/11/11 00:13:14;;;;;;;;;16.00;10.25;;;;;;;;5060494;28;51197;-42
2022/11/11 00:16:06;;;;;;;;;13.25;13.25;;;;;;;;5061029;28;51127;-42
2022/11/11 00:25:08;;;;;;;;;19.00;12.00;;;;;;;;5061081;28;51428;-45
2022/11/11 00:27:52;;;;;;;;;14.50;12.00;;;;;;;;5060491;28;51030;-47
2022/11/11 00:30:36;;;;;;;;;14.25;12.25;;;;;;;;5060735;28;51211;-46
2022/11/11 00:33:21;;;;;;;;;12.00;11.50;;;;;;;;5059788;28;51101;-46
2022/11/11 00:36:06;;;;;;;;;17.75;14.50;;;;;;;;5060677;28;51912;-45
2022/11/11 00:38:51;;;;;;;;;16.25;12.00;;;;;;;;5060431;28;51111;-45
2022/11/11 00:41:36;;;;;;;;;18.00;13.25;;;;;;;;5060618;28;51241;-43
2022/11/11 00:44:20;;;;;;;;;17.75;13.25;;;;;;;;5055262;28;51072;-44
2022/11/11 00:53:18;;;;;;;;;7.75;5.25;;;;;;;;5059853;28;51147;-47
2022/11/11 00:56:03;;;;;;;;;9.75;6.00;;;;;;;;5060186;28;51208;-47
2022/11/11 00:58:47;;;;;;;;;10.00;5.75;;;;;;;;5060052;28;51074;-44
2022/11/11 01:01:33;;;;;;;;;7.50;5.00;;;;;;;;5058723;28;51512;-44
2022/11/11 01:04:17;;;;;;;;;8.25;5.75;;;;;;;;5039650;28;51128;-45
2022/11/11 01:07:01;;;;;;;;;7.00;7.00;;;;;;;;5059716;28;51159;-46
2022/11/11 01:09:46;;;;;;;;;6.50;6.25;;;;;;;;5059819;28;51147;-48
2022/11/11 01:12:30;;;;;;;;;12.75;8.25;;;;;;;;5059670;28;51181;-44
2022/11/11 01:15:14;;;;;;;;;12.00;5.75;;;;;;;;5059974;28;51507;-47
2022/11/11 01:17:59;;;;;;;;;9.00;6.25;;;;;;;;5059697;28;51058;-45
2022/11/11 01:20:44;;;;;;;;;8.25;5.00;;;;;;;;5059888;28;51020;-44
2022/11/11 01:23:28;;;;;;;;;7.00;7.00;;;;;;;;5059400;28;51097;-46
2022/11/11 01:26:20;;;;;;;;;6.75;6.25;;;;;;;;5059644;28;51465;-46
2022/11/11 01:29:05;;;;;;;;;8.00;5.50;;;;;;;;5059213;28;51035;-45
2022/11/11 01:31:49;;;;;;;;;10.25;7.00;;;;;;;;5059517;28;51008;-44
2022/11/11 01:34:33;;;;;;;;;10.00;9.00;;;;;;;;5059545;28;51333;-43
2022/11/11 01:37:18;;;;;;;;;12.50;8.00;;;;;;;;5059782;28;51064;-45
2022/11/11 01:40:02;;;;;;;;;6.75;5.75;;;;;;;;5059647;28;51364;-43
2022/11/11 01:42:48;;;;;;;;;11.25;7.50;;;;;;;;5059047;28;51163;-44
2022/11/11 01:45:44;;;;;;;;;10.00;7.75;;;;;;;;5059173;28;51146;-44
2022/11/11 01:51:52;;;;;;;;;11.75;7.00;;;;;;;;5059530;28;51452;-45
2022/11/11 01:54:40;;;;;;;;;13.75;8.00;;;;;;;;5059106;28;51062;-45
2022/11/11 01:57:28;;;;;;;;;13.75;10.25;;;;;;;;5059500;28;51111;-45
2022/11/11 02:00:14;;;;;;;;;8.50;7.75;;;;;;;;5040423;28;51121;-43
2022/11/11 02:03:01;;;;;;;;;11.00;10.00;;;;;;;;5038825;28;51158;-43
2022/11/11 02:05:45;;;;;;;;;13.75;8.25;;;;;;;;5054543;28;51099;-43
2022/11/11 02:08:35;;;;;;;;;12.00;7.25;;;;;;;;5058797;28;51009;-45
2022/11/11 02:14:34;;;;;;;;;12.75;7.75;;;;;;;;5059367;28;51093;-42
2022/11/11 02:14:41;;;;;;;;;13.00;8.50;;;;;;;;5058519;28;51098;-43
2022/11/11 02:17:27;;;;;;;;;12.50;10.00;;;;;;;;5058781;28;51469;-43
2022/11/11 02:20:13;;;;;;;;;9.25;7.50;;;;;;;;5059287;28;51087;-43
2022/11/11 02:23:02;;;;;;;;;11.25;7.75;;;;;;;;5059416;28;51103;-44
2022/11/11 02:25:48;;;;;;;;;8.00;8.00;;;;;;;;5058784;28;51235;-43
2022/11/11 02:28:33;;;;;;;;;11.75;8.25;;;;;;;;5059309;28;51122;-43
2022/11/11 02:31:17;;;;;;;;;9.00;8.00;;;;;;;;5059159;28;51328;-44
2022/11/11 02:34:02;;;;;;;;;12.50;11.00;;;;;;;;5058964;28;51031;-46
2022/11/11 02:36:46;;;;;;;;;11.50;7.25;;;;;;;;5043919;28;51028;-44
2022/11/11 02:39:32;;;;;;;;;11.00;10.00;;;;;;;;5038828;28;51526;-45
2022/11/11 02:42:17;;;;;;;;;14.50;10.25;;;;;;;;5055873;28;51419;-44
2022/11/11 02:45:01;;;;;;;;;10.00;8.75;;;;;;;;5058283;28;51429;-44
2022/11/11 02:47:46;;;;;;;;;12.50;9.25;;;;;;;;5058919;28;51152;-45
2022/11/11 02:50:30;;;;;;;;;10.00;10.00;;;;;;;;5058788;28;51218;-44
2022/11/11 02:53:14;;;;;;;;;12.00;9.00;;;;;;;;5058466;28;51053;-45
2022/11/11 02:55:59;;;;;;;;;9.00;9.00;;;;;;;;5060658;28;51111;-44
2022/11/11 02:58:43;;;;;;;;;9.00;8.75;;;;;;;;5062456;28;52057;-44
2022/11/11 03:01:27;;;;;;;;;16.25;11.25;;;;;;;;5062675;28;51095;-44
2022/11/11 03:04:12;;;;;;;;;10.50;9.00;;;;;;;;5043991;28;51482;-44
2022/11/11 03:06:56;;;;;;;;;12.00;10.25;;;;;;;;5062348;28;51025;-43
2022/11/11 03:09:41;;;;;;;;;10.25;8.75;;;;;;;;5062303;28;51124;-45
2022/11/11 03:12:25;;;;;;;;;12.25;9.75;;;;;;;;5062363;28;51144;-44
2022/11/11 03:15:10;;;;;;;;;17.75;10.25;;;;;;;;5061828;28;51469;-44
2022/11/11 03:17:54;;;;;;;;;14.25;12.75;;;;;;;;5061951;28;51375;-42
2022/11/11 03:23:41;;;;;;;;;14.00;10.00;;;;;;;;5061934;28;51158;-45
2022/11/11 03:26:25;;;;;;;;;9.25;9.00;;;;;;;;5062133;28;51418;-43
2022/11/11 03:29:10;;;;;;;;;14.50;10.25;;;;;;;;5061823;28;51618;-46
2022/11/11 03:31:54;;;;;;;;;14.75;10.25;;;;;;;;5061788;28;51404;-42
2022/11/11 03:34:39;;;;;;;;;13.25;11.00;;;;;;;;5061140;28;51184;-44
2022/11/11 03:40:26;;;;;;;;;12.75;10.00;;;;;;;;5059825;28;51372;-46
2022/11/11 03:43:14;;;;;;;;;14.75;12.25;;;;;;;;5062358;28;51368;-49
2022/11/11 03:45:59;;;;;;;;;12.25;9.50;;;;;;;;5061959;28;51164;-47
2022/11/11 03:48:44;;;;;;;;;11.75;9.00;;;;;;;;5061132;28;51159;-46
2022/11/11 03:51:28;;;;;;;;;11.50;11.00;;;;;;;;5062212;28;51159;-49
2022/11/11 03:54:13;;;;;;;;;11.25;10.00;;;;;;;;5061323;28;50989;-43
2022/11/11 03:57:29;;;;;;;;;14.50;11.50;;;;;;;;5061354;28;51027;-46
2022/11/11 04:00:01;;;;;;;;;15.75;12.00;;;;;;;;5061362;28;50971;-47
2022/11/11 04:11:54;;;;;;;;;12.25;10.50;;;;;;;;5061549;28;51401;-46
2022/11/11 04:17:41;;;;;;;;;14.75;11.00;;;;;;;;5061224;28;51139;-44
2022/11/11 04:23:28;;;;;;;;;9.00;7.50;;;;;;;;5059129;28;51588;-43
2022/11/11 04:26:12;;;;;;;;;9.00;7.00;;;;;;;;5040556;28;51125;-48
2022/11/11 04:29:39;;;;;;;;;10.50;9.25;;;;;;;;5061277;28;51084;-46
2022/11/11 04:35:12;;;;;;;;;12.75;8.25;;;;;;;;5060865;28;51095;-47
2022/11/11 04:41:02;;;;;;;;;12.25;10.75;;;;;;;;5060019;28;51446;-44
2022/11/11 04:41:03;;;;;;;;;10.25;8.50;;;;;;;;5060275;28;51014;-46
2022/11/11 04:46:50;;;;;;;;;13.50;9.00;;;;;;;;5059886;28;51337;-46
2022/11/11 04:49:35;;;;;;;;;11.25;8.00;;;;;;;;5057223;28;51238;-49
2022/11/11 04:52:25;;;;;;;;;10.00;8.50;;;;;;;;5060398;28;51144;-47
2022/11/11 04:58:12;;;;;;;;;11.75;9.00;;;;;;;;5059558;28;51669;-44
2022/11/11 05:00:57;;;;;;;;;12.25;9.50;;;;;;;;5055998;28;51269;-44
2022/11/11 05:03:41;;;;;;;;;12.25;9.25;;;;;;;;5048202;28;51342;-46
2022/11/11 05:09:28;;;;;;;;;12.00;10.00;;;;;;;;5039885;28;51042;-46
2022/11/11 05:12:12;;;;;;;;;13.75;9.00;;;;;;;;5057088;28;51134;-45
2022/11/11 05:21:19;;;;;;;;;14.25;8.00;;;;;;;;5060537;28;50985;-46
2022/11/11 05:27:06;;;;;;;;;16.00;9.75;;;;;;;;5058862;28;51109;-44
2022/11/11 05:29:50;;;;;;;;;12.00;11.25;;;;;;;;5060089;28;51531;-44
2022/11/11 05:32:35;;;;;;;;;13.00;9.25;;;;;;;;5059286;28;51097;-50
2022/11/11 05:35:19;;;;;;;;;11.00;7.50;;;;;;;;5059860;28;51120;-45
2022/11/11 05:38:19;;;;;;;;;9.75;6.00;;;;;;;;5059091;28;51123;-46
2022/11/11 05:41:03;;;;;;;;;25.50;12.50;;;;;;;;5059862;28;51375;-46
2022/11/11 05:43:47;;;;;;;;;22.50;16.00;;;;;;;;5059412;28;51099;-44
2022/11/11 05:46:32;;;;;;;;;41.25;31.00;;;;;;;;5059228;28;51404;-47
2022/11/11 05:49:16;;;;;;;;;12.50;10.25;;;;;;;;5059471;28;51473;-44
2022/11/11 05:52:01;;;;;;;;;17.25;14.00;;;;;;;;5059532;28;51139;-44
2022/11/11 05:54:45;;;;;;;;;13.00;10.00;;;;;;;;5054404;28;51045;-44
2022/11/11 05:57:29;;;;;;;;;15.50;12.50;;;;;;;;5058746;28;51442;-44
2022/11/11 06:00:14;;;;;;;;;15.00;10.75;;;;;;;;5059722;28;51093;-44
2022/11/11 06:03:03;;;;;;;;;19.50;15.50;;;;;;;;5059211;28;51068;-44
2022/11/11 06:05:47;;;;;;;;;31.00;25.50;;;;;;;;5059464;28;51112;-44
2022/11/11 06:08:32;;;;;;;;;54.75;43.25;;;;;;;;5058824;28;51174;-44
2022/11/11 06:11:16;;;;;;;;;54.50;43.75;;;;;;;;5059435;28;51135;-44
2022/11/11 06:14:01;;;;;;;;;55.00;42.25;;;;;;;;5056799;28;51180;-42
2022/11/11 06:16:45;;;;;;;;;52.75;43.25;;;;;;;;5052214;28;51132;-47
2022/11/11 06:19:30;;;;;;;;;56.25;44.50;;;;;;;;5038908;28;51672;-47
2022/11/11 06:22:54;;;;;;;;;56.00;41.50;;;;;;;;5051089;28;51775;-42
2022/11/11 06:28:22;;;;;;;;;51.75;41.25;;;;;;;;5057696;28;51527;-46
2022/11/11 06:31:06;;;;;;;;;50.75;40.50;;;;;;;;5061413;28;52069;-47
2022/11/11 06:33:51;;;;;;;;;51.75;41.75;;;;;;;;5060303;28;51134;-49
2022/11/11 06:36:35;;;;;;;;;47.75;35.00;;;;;;;;5052315;28;51071;-45
2022/11/11 06:39:20;;;;;;;;;45.75;36.00;;;;;;;;5061939;28;51036;-46
2022/11/11 06:42:04;;;;;;;;;42.75;37.50;;;;;;;;5047489;28;52780;-46
2022/11/11 06:44:48;;;;;;;;;53.50;42.25;;;;;;;;5042081;28;51772;-47
2022/11/11 06:47:33;;;;;;;;;47.75;40.50;;;;;;;;5049359;28;51199;-51
2022/11/11 06:50:18;;;;;;;;;51.50;41.00;;;;;;;;5047396;28;51272;-45
2022/11/11 06:53:16;;;;;;;;;52.25;42.00;;;;;;;;5040583;28;52378;-45
2022/11/11 06:56:00;;;;;;;;;55.75;43.00;;;;;;;;5043958;28;52220;-44
2022/11/11 06:58:44;;;;;;;;;51.50;36.25;;;;;;;;5049116;28;51178;-46
2022/11/11 07:01:29;;;;;;;;;47.75;38.50;;;;;;;;5051989;28;51045;-45
2022/11/11 07:04:13;;;;;;;;;56.00;41.50;;;;;;;;5059146;28;51061;-49
2022/11/11 07:06:58;;;;;;;;;32.50;29.75;;;;;;;;5061267;28;51114;-43
2022/11/11 07:09:42;;;;;;;;;30.75;26.50;;;;;;;;5061874;28;51556;-43
2022/11/11 07:12:27;;;;;;;;;34.50;27.75;;;;;;;;5042407;28;51286;-48
2022/11/11 07:15:11;;;;;;;;;27.00;23.25;;;;;;;;5044770;28;51034;-47
2022/11/11 07:17:56;;;;;;;;;27.00;25.75;;;;;;;;5044776;28;51078;-46
2022/11/11 07:20:40;;;;;;;;;38.50;30.25;;;;;;;;5052965;28;51530;-48
2022/11/11 07:23:24;;;;;;;;;26.75;23.00;;;;;;;;5041925;28;51111;-44
2022/11/11 07:26:09;;;;;;;;;21.25;21.25;;;;;;;;5042811;28;51564;-43
2022/11/11 07:28:54;;;;;;;;;24.75;22.75;;;;;;;;5053958;28;51426;-48
2022/11/11 07:31:39;;;;;;;;;20.50;19.50;;;;;;;;5041054;28;51085;-44
2022/11/11 07:34:23;;;;;;;;;32.25;24.25;;;;;;;;5056494;28;51124;-43
2022/11/11 07:37:08;;;;;;;;;23.75;22.00;;;;;;;;5060903;28;51165;-47
2022/11/11 07:39:53;;;;;;;;;25.75;23.25;;;;;;;;5056892;28;51270;-48
2022/11/11 07:42:39;;;;;;;;;23.25;19.00;;;;;;;;5054780;28;51079;-47
2022/11/11 07:45:23;;;;;;;;;18.00;18.00;;;;;;;;5043413;28;51121;-45
2022/11/11 07:48:07;;;;;;;;;21.50;20.25;;;;;;;;5046777;28;51189;-45
2022/11/11 07:50:55;;;;;;;;;29.00;21.50;;;;;;;;5047850;28;51607;-48
2022/11/11 07:53:40;;;;;;;;;25.25;23.00;;;;;;;;5030661;28;51081;-44
2022/11/11 07:56:24;;;;;;;;;20.00;18.25;;;;;;;;5037481;28;51198;-47
2022/11/11 07:59:08;;;;;;;;;24.50;21.75;;;;;;;;5044900;28;51190;-47
2022/11/11 08:01:53;;;;;;;;;24.00;21.00;;;;;;;;5046046;28;51019;-46
2022/11/11 08:04:37;;;;;;;;;27.75;23.75;;;;;;;;5061069;28;51085;-46
2022/11/11 08:07:22;;;;;;;;;19.75;17.00;;;;;;;;5043710;28;51118;-44
2022/11/11 08:10:07;;;;;;;;;26.25;19.50;;;;;;;;5038317;28;51218;-45
2022/11/11 08:15:58;;;;;;;;;16.50;13.75;;;;;;;;5058868;28;51193;-45
2022/11/11 08:18:43;;;;;;;;;21.00;15.50;;;;;;;;5047883;28;51228;-45
2022/11/11 08:21:27;;;;;;;;;2.50;0.00;;;;;;;;5057126;28;51278;-44
2022/11/11 08:24:11;;;;;;;;;16.75;13.50;;;;;;;;5060237;28;51509;-48
2022/11/11 08:26:56;;;;;;;;;14.25;14.25;;;;;;;;5048248;28;51453;-43
2022/11/11 08:29:40;;;;;;;;;14.00;12.25;;;;;;;;5041931;28;52011;-45
2022/11/11 08:32:25;;;;;;;;;15.00;13.75;;;;;;;;5056430;28;51196;-49
2022/11/11 08:35:09;;;;;;;;;12.25;11.00;;;;;;;;5052199;28;51159;-43
2022/11/11 08:37:53;;;;;;;;;8.75;8.00;;;;;;;;5045290;28;51144;-47
2022/11/11 08:40:38;;;;;;;;;10.25;10.25;;;;;;;;5044959;28;51101;-46
2022/11/11 08:43:22;;;;;;;;;10.75;10.75;;;;;;;;5042275;28;51446;-44
2022/11/11 08:46:07;;;;;;;;;8.00;7.75;;;;;;;;5037804;28;51102;-47
2022/11/11 08:48:52;;;;;;;;;14.00;9.75;;;;;;;;5040218;28;51463;-42
2022/11/11 08:51:36;;;;;;;;;10.75;8.50;;;;;;;;5057360;28;51025;-43
2022/11/11 08:54:20;;;;;;;;;14.25;10.75;;;;;;;;5059916;28;51039;-46
2022/11/11 08:57:05;;;;;;;;;11.75;10.50;;;;;;;;5048803;28;51077;-46
2022/11/11 08:59:49;;;;;;;;;10.25;8.75;;;;;;;;5039807;28;51005;-49
2022/11/11 09:02:34;;;;;;;;;11.25;9.50;;;;;;;;5040197;28;51141;-49
2022/11/11 09:05:19;;;;;;;;;5.50;5.50;;;;;;;;5056446;28;51161;-50
2022/11/11 09:08:07;;;;;;;;;7.00;5.00;;;;;;;;5059735;28;51112;-43
2022/11/11 09:10:51;;;;;;;;;7.25;5.25;;;;;;;;5059945;28;51103;-43
2022/11/11 09:13:35;;;;;;;;;3.50;3.25;;;;;;;;5059720;28;51218;-47
2022/11/11 09:16:20;;;;;;;;;2.00;2.00;;;;;;;;5057944;28;51137;-45
2022/11/11 09:19:04;;;;;;;;;3.00;3.00;;;;;;;;5057635;28;51123;-44
2022/11/11 09:21:52;;;;;;;;;5.25;4.50;;;;;;;;5059490;28;51278;-46
2022/11/11 09:24:36;;;;;;;;;3.25;3.25;;;;;;;;5059612;28;51559;-43
2022/11/11 09:27:21;;;;;;;;;7.25;6.00;;;;;;;;5058885;28;51484;-48
2022/11/11 09:30:06;;;;;;;;;5.75;4.50;;;;;;;;5059812;28;51147;-44
2022/11/11 09:32:50;;;;;;;;;5.25;4.50;;;;;;;;5059475;28;51403;-46
2022/11/11 09:35:35;;;;;;;;;4.50;4.25;;;;;;;;5059595;28;51089;-43
2022/11/11 09:38:19;;;;;;;;;4.25;3.00;;;;;;;;5059401;28;51120;-43
2022/11/11 09:41:04;;;;;;;;;4.50;4.00;;;;;;;;5059055;28;51144;-45
2022/11/11 09:43:54;;;;;;;;;5.00;5.00;;;;;;;;5057156;28;51145;-43
2022/11/11 09:46:38;;;;;;;;;6.00;4.50;;;;;;;;5045260;28;51314;-43
2022/11/11 09:49:37;;;;;;;;;3.25;2.75;;;;;;;;5038058;28;51123;-46
2022/11/11 09:52:25;;;;;;;;;7.25;5.75;;;;;;;;5057118;28;51068;-45
2022/11/11 09:55:25;;;;;;;;;6.00;3.25;;;;;;;;5058723;28;51265;-44
2022/11/11 09:58:25;;;;;;;;;4.25;3.00;;;;;;;;5058158;28;51564;-42
2022/11/11 10:01:16;;;;;;;;;2.00;2.00;;;;;;;;5059059;28;51016;-44
2022/11/11 10:04:09;;;;;;;;;4.50;4.00;;;;;;;;5059143;28;51113;-43
2022/11/11 10:06:56;;;;;;;;;2.25;2.25;;;;;;;;5063671;28;51080;-50
2022/11/11 10:09:44;;;;;;;;;4.50;3.75;;;;;;;;5063559;28;51086;-46
2022/11/11 10:12:34;;;;;;;;;4.25;2.50;;;;;;;;5050787;28;51170;-43
2022/11/11 10:15:19;;;;;;;;;4.75;3.00;;;;;;;;5045684;28;51542;-44
2022/11/11 10:18:19;;;;;;;;;5.50;5.50;;;;;;;;5042786;28;51124;-44
2022/11/11 10:21:08;;;;;;;;;5.50;5.25;;;;;;;;5050295;28;51278;-45
2022/11/11 10:23:56;;;;;;;;;7.75;6.00;;;;;;;;5042725;28;51074;-43
2022/11/11 10:26:41;;;;;;;;;5.00;4.75;;;;;;;;5053037;28;51429;-45
2022/11/11 10:29:30;;;;;;;;;8.50;6.25;;;;;;;;5060892;28;51109;-41
2022/11/11 10:32:19;;;;;;;;;8.25;5.00;;;;;;;;5059234;28;50999;-45
2022/11/11 10:35:23;;;;;;;;;9.00;6.50;;;;;;;;5051123;28;51532;-46
2022/11/11 10:38:10;;;;;;;;;6.50;6.00;;;;;;;;5049610;28;51138;-47
2022/11/11 10:40:56;;;;;;;;;5.50;4.75;;;;;;;;5042659;28;51107;-44
2022/11/11 10:43:43;;;;;;;;;10.50;8.00;;;;;;;;5048208;28;51443;-48
2022/11/11 10:46:35;;;;;;;;;6.50;5.00;;;;;;;;5043023;28;51287;-47
2022/11/11 10:49:23;;;;;;;;;4.25;4.25;;;;;;;;5044910;28;50950;-46
2022/11/11 10:52:24;;;;;;;;;2.50;2.50;;;;;;;;5044456;28;51127;-45
2022/11/11 10:55:13;;;;;;;;;10.75;9.00;;;;;;;;5044421;28;51108;-48
2022/11/11 10:58:00;;;;;;;;;7.00;5.50;;;;;;;;5049654;28;51501;-45
2022/11/11 11:00:47;;;;;;;;;6.00;5.50;;;;;;;;5056341;28;51086;-45
2022/11/11 11:03:36;;;;;;;;;5.50;4.00;;;;;;;;5042969;28;51088;-44
2022/11/11 11:06:21;;;;;;;;;6.50;5.25;;;;;;;;5040298;28;51405;-48
2022/11/11 11:09:13;;;;;;;;;9.75;5.75;;;;;;;;5045729;28;51201;-49
2022/11/11 11:12:08;;;;;;;;;5.25;5.25;;;;;;;;5041884;28;51132;-50
2022/11/11 11:15:00;;;;;;;;;4.00;4.00;;;;;;;;5056283;28;51329;-45
2022/11/11 11:18:04;;;;;;;;;6.00;5.50;;;;;;;;5047913;28;51102;-44
2022/11/11 11:21:00;;;;;;;;;7.75;6.50;;;;;;;;5052774;28;51184;-44
2022/11/11 11:23:45;;;;;;;;;6.75;6.00;;;;;;;;5048325;28;51438;-48
2022/11/11 11:26:42;;;;;;;;;11.00;8.25;;;;;;;;5050276;28;51564;-47
2022/11/11 11:29:28;;;;;;;;;8.00;6.50;;;;;;;;5039229;28;51133;-43
2022/11/11 11:32:12;;;;;;;;;5.50;5.25;;;;;;;;5040150;28;51089;-45
2022/11/11 11:34:57;;;;;;;;;1.25;1.25;;;;;;;;5060426;28;51512;-44
2022/11/11 11:37:49;;;;;;;;;8.75;7.25;;;;;;;;5061040;28;51157;-44
2022/11/11 11:40:52;;;;;;;;;8.25;7.50;;;;;;;;5059124;28;51056;-44
2022/11/11 11:43:37;;;;;;;;;9.50;6.00;;;;;;;;5059128;28;51104;-46
2022/11/11 11:46:27;;;;;;;;;7.00;7.00;;;;;;;;5042132;28;51237;-43
2022/11/11 11:49:17;;;;;;;;;7.50;5.75;;;;;;;;5058514;28;50447;-47
2022/11/11 11:52:24;;;;;;;;;11.00;9.00;;;;;;;;5061591;28;51349;-43
2022/11/11 11:55:17;;;;;;;;;16.50;11.00;;;;;;;;5054647;28;51177;-44
2022/11/11 11:58:10;;;;;;;;;11.25;6.00;;;;;;;;5042559;28;51526;-45
2022/11/11 12:01:01;;;;;;;;;7.25;6.75;;;;;;;;5046643;28;51163;-46
2022/11/11 12:04:04;;;;;;;;;11.00;7.25;;;;;;;;5043461;28;51373;-46
2022/11/11 12:07:00;;;;;;;;;11.75;8.75;;;;;;;;5048963;28;51521;-44
2022/11/11 12:10:05;;;;;;;;;9.75;7.00;;;;;;;;5045779;28;51179;-46
2022/11/11 12:12:52;;;;;;;;;8.25;6.50;;;;;;;;5047906;28;51493;-48
2022/11/11 12:15:42;;;;;;;;;9.00;7.25;;;;;;;;5051341;28;51059;-46
2022/11/11 12:18:48;;;;;;;;;12.50;8.25;;;;;;;;5056283;28;51438;-44
2022/11/11 12:21:38;;;;;;;;;9.00;5.75;;;;;;;;5043397;28;51181;-44
2022/11/11 12:24:32;;;;;;;;;6.75;6.75;;;;;;;;5059942;28;51128;-45
2022/11/11 12:27:29;;;;;;;;;7.50;6.75;;;;;;;;5059666;28;51177;-46
2022/11/11 12:30:17;;;;;;;;;5.75;5.50;;;;;;;;5036991;28;51042;-42
2022/11/11 12:33:01;;;;;;;;;3.75;3.25;;;;;;;;5054701;28;51078;-45
2022/11/11 12:35:49;;;;;;;;;8.25;6.50;;;;;;;;5061764;28;51424;-45
2022/11/11 12:38:33;;;;;;;;;7.25;5.75;;;;;;;;5061183;28;51510;-46
2022/11/11 12:41:27;;;;;;;;;10.00;6.50;;;;;;;;5061154;28;51488;-44
2022/11/11 12:44:13;;;;;;;;;6.75;5.00;;;;;;;;5060718;28;51085;-43
2022/11/11 12:47:06;;;;;;;;;8.50;6.00;;;;;;;;5061114;28;51078;-44
2022/11/11 12:50:02;;;;;;;;;6.50;6.00;;;;;;;;5048018;28;51184;-43
2022/11/11 12:52:49;;;;;;;;;6.75;5.75;;;;;;;;5059986;28;51551;-45
2022/11/11 12:55:40;;;;;;;;;7.00;4.25;;;;;;;;5062291;28;51072;-46
2022/11/11 12:58:31;;;;;;;;;10.50;6.50;;;;;;;;5061438;28;51452;-45
2022/11/11 13:01:24;;;;;;;;;7.25;5.75;;;;;;;;5054901;28;51327;-42
2022/11/11 13:04:28;;;;;;;;;7.00;5.50;;;;;;;;5039902;28;51054;-44
2022/11/11 13:07:16;;;;;;;;;8.50;8.50;;;;;;;;5057432;28;51056;-43
2022/11/11 13:10:03;;;;;;;;;5.75;5.75;;;;;;;;5060188;28;51495;-42
2022/11/11 13:12:57;;;;;;;;;5.50;4.00;;;;;;;;5060856;28;51129;-46
2022/11/11 13:15:42;;;;;;;;;7.00;6.50;;;;;;;;5060069;28;51341;-47
2022/11/11 13:18:37;;;;;;;;;6.75;4.75;;;;;;;;5060924;28;51243;-47
2022/11/11 13:21:30;;;;;;;;;5.00;5.00;;;;;;;;5060949;28;51039;-43
2022/11/11 13:24:18;;;;;;;;;6.25;5.25;;;;;;;;5041621;28;51645;-48
2022/11/11 13:27:03;;;;;;;;;6.25;5.00;;;;;;;;5046306;28;51037;-43
2022/11/11 13:30:07;;;;;;;;;5.00;4.25;;;;;;;;5059809;28;51115;-44
2022/11/11 13:33:12;;;;;;;;;5.75;4.75;;;;;;;;5060119;28;51338;-43
2022/11/11 13:35:59;;;;;;;;;3.50;3.50;;;;;;;;5059040;28;51680;-45
2022/11/11 13:39:13;;;;;;;;;6.00;6.00;;;;;;;;5030017;28;51504;-44
2022/11/11 13:41:58;;;;;;;;;8.25;5.50;;;;;;;;5051214;28;51373;-46
2022/11/11 13:44:48;;;;;;;;;6.75;5.50;;;;;;;;5059028;28;51195;-45
2022/11/11 13:47:33;;;;;;;;;6.75;4.50;;;;;;;;5059009;28;51117;-44
2022/11/11 13:50:44;;;;;;;;;9.50;6.00;;;;;;;;5045915;28;51516;-43
2022/11/11 13:53:34;;;;;;;;;5.75;4.50;;;;;;;;5051193;28;52639;-43
2022/11/11 13:56:34;;;;;;;;;10.50;7.00;;;;;;;;5058061;28;51137;-46
2022/11/11 13:59:24;;;;;;;;;5.50;4.00;;;;;;;;5039366;28;51321;-45
2022/11/11 14:02:18;;;;;;;;;2.25;1.50;;;;;;;;5036544;28;51424;-47
2022/11/11 14:05:07;;;;;;;;;5.50;4.25;;;;;;;;5048128;28;51174;-43
2022/11/11 14:07:53;;;;;;;;;7.75;5.00;;;;;;;;5046843;28;51462;-44
2022/11/11 14:10:47;;;;;;;;;6.75;5.00;;;;;;;;5057079;28;51123;-44
2022/11/11 14:13:36;;;;;;;;;9.25;5.50;;;;;;;;5057761;28;51461;-42
2022/11/11 14:16:35;;;;;;;;;7.00;4.50;;;;;;;;5055255;28;51409;-44
2022/11/11 14:19:22;;;;;;;;;6.00;4.75;;;;;;;;5043977;28;51366;-46
2022/11/11 14:22:25;;;;;;;;;5.00;5.00;;;;;;;;5043720;28;51196;-45
2022/11/11 14:25:18;;;;;;;;;6.00;5.25;;;;;;;;5047262;28;51155;-43
2022/11/11 14:28:02;;;;;;;;;5.75;5.00;;;;;;;;5023532;28;51174;-42
2022/11/11 14:30:47;;;;;;;;;7.75;6.00;;;;;;;;5041137;28;51058;-42
2022/11/11 14:33:41;;;;;;;;;6.00;4.00;;;;;;;;5058681;28;51372;-44
2022/11/11 14:36:34;;;;;;;;;6.75;3.75;;;;;;;;5058661;28;51140;-42
2022/11/11 14:39:37;;;;;;;;;3.75;3.50;;;;;;;;5058986;28;51064;-42
2022/11/11 14:42:36;;;;;;;;;5.75;4.75;;;;;;;;5059139;28;51633;-46
2022/11/11 14:45:29;;;;;;;;;7.25;4.50;;;;;;;;5059238;28;51174;-46
2022/11/11 14:48:32;;;;;;;;;8.00;5.25;;;;;;;;5051065;28;51180;-45
2022/11/11 14:51:36;;;;;;;;;11.00;6.75;;;;;;;;5056455;28;51063;-44
2022/11/11 14:54:24;;;;;;;;;7.00;7.00;;;;;;;;5062946;28;51064;-42
2022/11/11 14:57:15;;;;;;;;;8.00;6.00;;;;;;;;5060861;28;51102;-42
2022/11/11 15:00:01;;;;;;;;;7.25;5.25;;;;;;;;5062803;28;51384;-43
2022/11/11 15:02:49;;;;;;;;;5.50;4.25;;;;;;;;5062170;28;51091;-43
2022/11/11 15:05:33;;;;;;;;;11.25;6.75;;;;;;;;5054049;28;51188;-43
2022/11/11 15:08:25;;;;;;;;;5.25;4.50;;;;;;;;5055375;28;51160;-42
2022/11/11 15:11:39;;;;;;;;;8.25;6.75;;;;;;;;5061203;28;51230;-43
2022/11/11 15:14:23;;;;;;;;;6.50;5.25;;;;;;;;5028761;28;51129;-43
2022/11/11 15:17:11;;;;;;;;;6.25;5.00;;;;;;;;5062067;28;51081;-43
2022/11/11 15:20:01;;;;;;;;;5.25;5.00;;;;;;;;5062509;28;51388;-44
2022/11/11 15:23:04;;;;;;;;;7.75;5.00;;;;;;;;5062240;28;51081;-44
2022/11/11 15:25:54;;;;;;;;;12.75;6.75;;;;;;;;5061727;28;51432;-44
2022/11/11 15:28:53;;;;;;;;;8.50;6.00;;;;;;;;5061872;28;51321;-46
2022/11/11 15:31:40;;;;;;;;;6.75;5.50;;;;;;;;5062156;28;51112;-45
2022/11/11 15:34:36;;;;;;;;;6.00;4.25;;;;;;;;5061698;28;51103;-44
2022/11/11 15:37:21;;;;;;;;;6.25;5.25;;;;;;;;5061760;28;51412;-43
2022/11/11 15:40:06;;;;;;;;;9.75;6.75;;;;;;;;5062160;28;51124;-47
2022/11/11 15:42:51;;;;;;;;;6.25;5.00;;;;;;;;5062134;28;51112;-45
2022/11/11 15:45:35;;;;;;;;;4.50;4.00;;;;;;;;5061436;28;51423;-49
2022/11/11 15:48:25;;;;;;;;;8.50;6.00;;;;;;;;5061294;28;51106;-47
2022/11/11 15:51:21;;;;;;;;;8.00;4.50;;;;;;;;5061951;28;51428;-45
2022/11/11 15:54:15;;;;;;;;;5.25;4.00;;;;;;;;5061556;28;51022;-44
2022/11/11 15:57:14;;;;;;;;;5.75;5.00;;;;;;;;5061348;28;51107;-44
2022/11/11 16:00:00;;;;;;;;;15.00;7.75;;;;;;;;5042786;28;51510;-42
2022/11/11 16:02:44;;;;;;;;;8.50;5.00;;;;;;;;5040114;28;51137;-48
2022/11/11 16:05:30;;;;;;;;;7.25;5.25;;;;;;;;5056454;28;50986;-42
2022/11/11 16:08:21;;;;;;;;;9.25;6.50;;;;;;;;5060613;28;51531;-44
2022/11/11 16:11:05;;;;;;;;;8.00;5.25;;;;;;;;5060900;28;51435;-44
2022/11/11 16:13:50;;;;;;;;;8.25;6.00;;;;;;;;5061290;28;51099;-45
2022/11/11 16:16:36;;;;;;;;;6.75;6.25;;;;;;;;5060821;28;51329;-44
2022/11/11 16:19:28;;;;;;;;;7.50;5.75;;;;;;;;5029935;28;51171;-46
2022/11/11 16:22:16;;;;;;;;;8.25;6.50;;;;;;;;5061219;28;51241;-49
2022/11/11 16:25:02;;;;;;;;;3.75;3.75;;;;;;;;5061134;28;51449;-49
2022/11/11 16:27:47;;;;;;;;;7.50;5.75;;;;;;;;5060472;28;51314;-42
2022/11/11 16:30:32;;;;;;;;;10.25;3.75;;;;;;;;5060463;28;51106;-42
2022/11/11 16:33:20;;;;;;;;;5.75;5.25;;;;;;;;5061087;28;51194;-44
2022/11/11 16:36:08;;;;;;;;;5.75;4.00;;;;;;;;5047494;28;51477;-43
2022/11/11 16:38:53;;;;;;;;;8.50;6.75;;;;;;;;5043173;28;51200;-43
2022/11/11 16:41:40;;;;;;;;;10.00;5.50;;;;;;;;5040524;28;51533;-42
2022/11/11 16:44:34;;;;;;;;;7.25;4.75;;;;;;;;5040463;28;51070;-43
2022/11/11 16:47:38;;;;;;;;;8.00;5.25;;;;;;;;5058037;28;51092;-45
2022/11/11 16:50:28;;;;;;;;;6.75;4.50;;;;;;;;5060833;28;51450;-41
2022/11/11 16:53:24;;;;;;;;;7.50;5.75;;;;;;;;5060958;28;51389;-44
2022/11/11 16:56:14;;;;;;;;;7.50;5.25;;;;;;;;5059972;28;51294;-45
2022/11/11 16:59:01;;;;;;;;;7.75;6.00;;;;;;;;5060718;28;51141;-44
2022/11/11 17:01:45;;;;;;;;;8.25;6.25;;;;;;;;5060395;28;51463;-43
2022/11/11 17:04:48;;;;;;;;;9.50;6.50;;;;;;;;5046189;28;51160;-47
2022/11/11 17:07:34;;;;;;;;;10.00;9.00;;;;;;;;5057527;28;51184;-42
2022/11/11 17:10:20;;;;;;;;;8.25;7.25;;;;;;;;5060569;28;50987;-43
2022/11/11 17:13:05;;;;;;;;;5.75;5.00;;;;;;;;5060312;28;51131;-46
2022/11/11 17:15:51;;;;;;;;;7.25;6.00;;;;;;;;5060099;28;51131;-45
2022/11/11 17:18:37;;;;;;;;;9.25;5.50;;;;;;;;5059949;28;51141;-42
2022/11/11 17:21:21;;;;;;;;;5.25;4.75;;;;;;;;5058541;28;51018;-41
2022/11/11 17:24:05;;;;;;;;;6.00;4.75;;;;;;;;5052813;28;51602;-43
2022/11/11 17:26:53;;;;;;;;;1.50;1.50;;;;;;;;5043843;28;51108;-45
2022/11/11 17:29:37;;;;;;;;;5.25;4.00;;;;;;;;5043440;28;51345;-44
2022/11/11 17:32:22;;;;;;;;;7.00;4.00;;;;;;;;5038847;28;51392;-42
2022/11/11 17:35:06;;;;;;;;;5.00;4.00;;;;;;;;5055077;28;51167;-42
2022/11/11 17:37:51;;;;;;;;;7.00;4.00;;;;;;;;5059248;28;51515;-43
2022/11/11 17:40:35;;;;;;;;;15.75;11.25;;;;;;;;5059348;28;51182;-44
2022/11/11 17:43:20;;;;;;;;;9.25;8.00;;;;;;;;5057421;28;51164;-43